Halfway, Oregon
Current Conditions -  °F | °C
As of 8:24 AM on Wednesday 28 Jan 2015 (Local Time) from KBKE Reporting Station
Haze Haze  
Wind Chill: 29°   Ceiling: Unl
Heat Index: 29°   Visibility: 3mi
Dew Point: 27°   Wind: 0mph
Humidity: 92%   Direction: NA
Pressure: 30.35"   Gusts: NA
Location:  44.88°N, 117.11°W
Report Text: KBKE 281624Z AUTO 00000KT 3SM BR FEW002 M02/M03 A3035 RMK AO2 T10171028 TSNO
Loading
Personal Weather Stations






























Interactive Weather Map New forecast layout! Learn more

10-Day Weather Forecast

Advertisements
Track Severe Weather on mobile